Time;durP1;ratioP1;P1;durP2;ratioP2;P2;SDS_P1;SDS_P2;PMS_P1;PMS_P2;Temp;Humidity;BMP_temperature;BMP_pressure;BME280_temperature;BME280_humidity;BME280_pressure;Samples;Min_cycle;Max_cycle;Signal;HPM_P1;HPM_P2
2023/08/06 00:00:22;;;;;;;4.47;2.30;;;22.40;91.30;;;;;;5033821;28;20488;-66
2023/08/06 00:02:48;;;;;;;5.40;2.80;;;22.30;91.20;;;;;;5030432;28;20050;-69
2023/08/06 00:05:13;;;;;;;5.95;2.30;;;22.20;92.30;;;;;;4997405;28;20051;-67
2023/08/06 00:07:39;;;;;;;5.20;2.70;;;22.20;92.30;;;;;;5028204;28;20054;-67
2023/08/06 00:10:05;;;;;;;5.50;2.72;;;;;;;;;;5018095;28;20045;-67
2023/08/06 00:12:31;;;;;;;4.97;2.50;;;22.40;92.50;;;;;;5030612;28;20438;-66
2023/08/06 00:14:57;;;;;;;4.95;2.72;;;22.30;91.20;;;;;;5033334;28;20176;-65
2023/08/06 00:17:23;;;;;;;3.97;2.33;;;22.20;91.10;;;;;;5034226;28;20132;-73
2023/08/06 00:19:48;;;;;;;5.95;2.85;;;22.40;92.30;;;;;;5064636;28;20057;-64
2023/08/06 00:22:14;;;;;;;4.90;2.47;;;22.10;91.10;;;;;;5034688;28;20165;-67
2023/08/06 00:24:40;;;;;;;6.63;2.80;;;22.30;92.40;;;;;;5030634;28;20042;-69
2023/08/06 00:27:06;;;;;;;6.80;2.88;;;22.20;92.20;;;;;;5022921;28;20061;-64
2023/08/06 00:29:31;;;;;;;4.82;2.85;;;22.20;92.20;;;;;;5015618;28;20095;-66
2023/08/06 00:31:57;;;;;;;5.88;2.70;;;22.40;91.20;;;;;;5027359;28;20056;-64
2023/08/06 00:34:23;;;;;;;5.40;2.40;;;22.10;92.20;;;;;;5030198;28;20045;-65
2023/08/06 00:36:48;;;;;;;8.55;3.00;;;22.40;92.20;;;;;;5033942;28;20079;-62
2023/08/06 00:39:14;;;;;;;6.22;2.70;;;22.10;92.10;;;;;;5032860;28;20049;-66
2023/08/06 00:41:40;;;;;;;5.43;2.65;;;22.20;92.10;;;;;;5033348;28;20053;-64
2023/08/06 00:44:06;;;;;;;4.90;2.63;;;22.30;92.10;;;;;;5026881;28;20046;-65
2023/08/06 00:46:32;;;;;;;5.07;2.70;;;22.20;92.60;;;;;;5033427;28;20045;-63
2023/08/06 00:48:58;;;;;;;6.65;3.03;;;22.20;92.10;;;;;;5066663;28;20045;-62
2023/08/06 00:51:24;;;;;;;6.40;2.67;;;22.10;91.10;;;;;;5034581;28;20056;-61
2023/08/06 00:53:50;;;;;;;4.30;2.47;;;22.40;92.20;;;;;;5047660;28;20046;-62
2023/08/06 00:56:15;;;;;;;6.20;2.50;;;22.20;92.10;;;;;;5029254;28;20080;-62
2023/08/06 00:58:41;;;;;;;4.72;2.83;;;22.30;92.10;;;;;;5031077;28;20053;-65
2023/08/06 01:01:07;;;;;;;4.75;2.50;;;22.20;92.50;;;;;;5023384;28;20057;-62
2023/08/06 01:03:33;;;;;;;6.68;3.20;;;22.20;92.10;;;;;;5019910;28;20088;-62
2023/08/06 01:05:59;;;;;;;5.82;3.20;;;22.10;92.00;;;;;;5012782;28;20054;-63
2023/08/06 01:08:38;;;;;;;5.70;3.33;;;22.20;92.10;;;;;;5032770;28;20044;-62
2023/08/06 01:11:27;;;;;;;6.30;2.90;;;22.00;92.00;;;;;;5021522;28;20064;-71
2023/08/06 01:14:09;;;;;;;7.75;3.25;;;22.20;92.40;;;;;;5037843;28;20495;-73
2023/08/06 01:16:35;;;;;;;5.90;2.95;;;22.20;92.10;;;;;;5047281;28;20069;-72
2023/08/06 01:19:01;;;;;;;7.15;2.90;;;22.00;91.00;;;;;;5014779;28;20094;-72
2023/08/06 01:21:26;;;;;;;4.30;2.78;;;22.10;92.10;;;;;;5046071;28;20124;-71
2023/08/06 01:23:52;;;;;;;5.43;3.47;;;22.10;91.00;;;;;;5017263;28;20041;-71
2023/08/06 01:26:27;;;;;;;6.63;3.20;;;22.10;92.40;;;;;;5030372;28;20523;-68
2023/08/06 01:29:07;;;;;;;7.38;3.30;;;22.00;92.00;;;;;;5048068;28;20068;-72
2023/08/06 01:31:37;;;;;;;6.25;2.90;;;22.20;92.10;;;;;;5049176;28;20046;-73
2023/08/06 01:34:08;;;;;;;7.45;3.80;;;22.00;92.10;;;;;;5011258;28;20052;-72
2023/08/06 01:36:33;;;;;;;9.73;3.22;;;22.10;92.10;;;;;;4979935;28;20045;-67
2023/08/06 01:38:59;;;;;;;6.78;3.38;;;22.00;92.50;;;;;;5012847;28;20135;-67
2023/08/06 01:41:25;;;;;;;5.13;3.33;;;22.10;92.10;;;;;;5012684;28;20114;-67
2023/08/06 01:43:51;;;;;;;6.95;3.20;;;22.10;92.20;;;;;;5018057;28;20073;-68
2023/08/06 01:46:17;;;;;;;5.93;3.20;;;22.10;91.00;;;;;;5029815;28;20083;-67
2023/08/06 01:48:43;;;;;;;6.35;3.33;;;22.20;92.20;;;;;;5033795;28;20041;-68
2023/08/06 01:51:09;;;;;;;7.40;3.60;;;22.20;91.20;;;;;;5030641;28;20064;-70
2023/08/06 01:53:35;;;;;;;6.40;3.40;;;22.10;92.20;;;;;;5018394;28;20052;-67
2023/08/06 01:56:01;;;;;;;6.55;3.45;;;22.10;92.30;;;;;;5032066;28;20049;-68
2023/08/06 01:58:27;;;;;;;6.72;3.10;;;22.10;92.20;;;;;;5016865;28;20057;-67
2023/08/06 02:00:53;;;;;;;6.20;3.58;;;22.10;92.20;;;;;;5028882;28;20050;-67
2023/08/06 02:03:19;;;;;;;5.25;3.03;;;;;;;;;;5031699;28;20056;-72
2023/08/06 02:05:45;;;;;;;7.18;3.40;;;21.90;92.20;;;;;;5027244;28;20418;-65
2023/08/06 02:08:11;;;;;;;6.93;3.10;;;21.90;91.00;;;;;;5026771;28;20062;-69
2023/08/06 02:10:37;;;;;;;6.93;3.05;;;21.90;91.00;;;;;;5013695;28;20041;-69
2023/08/06 02:13:02;;;;;;;6.28;3.13;;;21.90;91.10;;;;;;5027770;28;20045;-64
2023/08/06 02:15:28;;;;;;;6.07;2.80;;;22.20;92.20;;;;;;5032295;28;20191;-66
2023/08/06 02:17:54;;;;;;;5.45;3.05;;;22.20;92.20;;;;;;5033242;28;20037;-67
2023/08/06 02:20:20;;;;;;;5.95;3.20;;;21.80;92.10;;;;;;5028874;28;20048;-68
2023/08/06 02:22:46;;;;;;;5.50;3.13;;;22.20;92.70;;;;;;5027007;28;20041;-69
2023/08/06 02:25:13;;;;;;;5.00;3.10;;;21.80;92.10;;;;;;5027952;28;20067;-69
2023/08/06 02:27:39;;;;;;;5.35;2.90;;;21.90;90.60;;;;;;5044963;28;20064;-72
2023/08/06 02:30:06;;;;;;;5.05;3.20;;;21.90;92.10;;;;;;5013273;28;20042;-66
2023/08/06 02:32:32;;;;;;;5.88;2.92;;;22.10;92.20;;;;;;5016329;28;20049;-68
2023/08/06 02:34:58;;;;;;;5.47;2.78;;;22.00;92.10;;;;;;5024041;28;20060;-64
2023/08/06 02:37:24;;;;;;;5.22;3.13;;;22.00;92.20;;;;;;5031422;28;20049;-67
2023/08/06 02:39:50;;;;;;;5.25;3.03;;;22.00;92.20;;;;;;5031392;28;20051;-66
2023/08/06 02:42:15;;;;;;;5.50;3.15;;;22.00;92.20;;;;;;5010737;28;20053;-68
2023/08/06 02:44:41;;;;;;;4.90;2.90;;;22.00;92.10;;;;;;5017683;28;20100;-64
2023/08/06 02:47:07;;;;;;;4.85;3.20;;;22.10;91.10;;;;;;5011941;28;20836;-64
2023/08/06 02:49:33;;;;;;;4.68;3.00;;;21.90;92.10;;;;;;5026271;28;20399;-64
2023/08/06 02:51:59;;;;;;;5.78;3.10;;;21.90;92.20;;;;;;5032452;28;20049;-64
2023/08/06 02:54:24;;;;;;;5.75;3.30;;;22.00;92.30;;;;;;5029936;28;20121;-64
2023/08/06 02:56:50;;;;;;;5.13;2.53;;;22.00;92.20;;;;;;5061490;28;20052;-62
2023/08/06 02:59:16;;;;;;;5.43;3.00;;;21.90;91.10;;;;;;5022196;28;20057;-62
2023/08/06 03:01:42;;;;;;;6.45;3.17;;;21.90;92.20;;;;;;5047634;28;20122;-63
2023/08/06 03:04:08;;;;;;;5.55;2.95;;;21.80;92.10;;;;;;5030132;28;20041;-62
2023/08/06 03:06:33;;;;;;;5.50;3.20;;;22.10;91.10;;;;;;5029875;28;20187;-62
2023/08/06 03:08:59;;;;;;;6.45;3.00;;;22.10;92.50;;;;;;5030578;28;20514;-62
2023/08/06 03:11:25;;;;;;;6.55;3.20;;;22.10;91.00;;;;;;5032521;28;20052;-62
2023/08/06 03:13:51;;;;;;;5.28;3.08;;;21.90;92.10;;;;;;5029522;28;20522;-63
2023/08/06 03:16:17;;;;;;;5.70;3.35;;;22.10;92.20;;;;;;5028240;28;20052;-63
2023/08/06 03:18:43;;;;;;;6.20;3.25;;;22.10;92.20;;;;;;5032236;28;20415;-63
2023/08/06 03:21:08;;;;;;;4.38;2.83;;;22.10;91.10;;;;;;5032286;28;20053;-63
2023/08/06 03:23:34;;;;;;;5.30;3.25;;;21.90;92.30;;;;;;5030386;28;20100;-65
2023/08/06 03:26:03;;;;;;;6.25;3.35;;;22.00;92.20;;;;;;5017152;28;20042;-64
2023/08/06 03:28:29;;;;;;;5.80;2.90;;;22.00;92.30;;;;;;5024458;28;20058;-62
2023/08/06 03:31:04;;;;;;;6.93;3.08;;;21.80;92.20;;;;;;5062290;28;20072;-65
2023/08/06 03:33:30;;;;;;;5.88;3.30;;;21.90;92.20;;;;;;5025835;28;20096;-65
2023/08/06 03:35:56;;;;;;;5.72;2.80;;;21.90;92.30;;;;;;5012716;28;20042;-64
2023/08/06 03:38:22;;;;;;;5.15;2.70;;;21.90;91.30;;;;;;5015945;28;20380;-63
2023/08/06 03:40:48;;;;;;;6.38;2.92;;;21.80;92.40;;;;;;5032209;28;20120;-63
2023/08/06 03:43:14;;;;;;;5.43;2.78;;;21.70;92.30;;;;;;5032179;28;20472;-65
2023/08/06 03:45:40;;;;;;;7.45;2.95;;;21.70;92.40;;;;;;5031151;28;20115;-65
2023/08/06 03:48:07;;;;;;;7.50;3.00;;;21.80;92.30;;;;;;5032846;28;20037;-64
2023/08/06 03:50:33;;;;;;;5.45;3.05;;;;;;;;;;5029522;28;20052;-61
2023/08/06 03:52:59;;;;;;;5.85;2.90;;;21.90;92.30;;;;;;5033414;28;20115;-63
2023/08/06 03:55:24;;;;;;;7.22;3.03;;;21.90;92.40;;;;;;5032487;28;20081;-63
2023/08/06 03:57:50;;;;;;;7.22;3.20;;;21.80;92.30;;;;;;5043757;28;20038;-63
2023/08/06 04:00:16;;;;;;;4.55;2.95;;;21.80;91.20;;;;;;5058556;28;20435;-64
2023/08/06 04:02:42;;;;;;;4.75;2.67;;;21.80;92.40;;;;;;5067896;28;20053;-64
2023/08/06 04:05:08;;;;;;;7.30;3.08;;;22.20;92.90;;;;;;5016843;28;20548;-65
2023/08/06 04:07:34;;;;;;;5.43;2.90;;;21.80;91.20;;;;;;5027798;28;20484;-63
2023/08/06 04:10:01;;;;;;;6.32;2.78;;;21.90;92.60;;;;;;5051948;28;20164;-63
2023/08/06 04:12:27;;;;;;;6.75;2.97;;;21.90;91.90;;;;;;5064738;28;20114;-62
2023/08/06 04:14:53;;;;;;;6.28;3.10;;;21.70;91.20;;;;;;5021594;28;20447;-64
2023/08/06 04:17:22;;;;;;;7.15;3.00;;;21.90;92.30;;;;;;5067289;28;20057;-63
2023/08/06 04:19:50;;;;;;;5.50;3.03;;;21.80;91.20;;;;;;5035407;28;20048;-65
2023/08/06 04:22:16;;;;;;;6.35;3.22;;;21.80;91.20;;;;;;5029844;28;20046;-65
2023/08/06 04:24:43;;;;;;;5.60;3.25;;;21.90;92.40;;;;;;5023334;28;20041;-62
2023/08/06 04:27:09;;;;;;;5.05;2.95;;;21.60;92.30;;;;;;5013422;28;20407;-63
2023/08/06 04:29:36;;;;;;;6.15;3.35;;;22.00;92.50;;;;;;5033570;28;20437;-62
2023/08/06 04:32:01;;;;;;;5.85;3.38;;;21.70;92.30;;;;;;5035199;28;20395;-63
2023/08/06 04:34:27;;;;;;;4.85;2.72;;;21.70;91.20;;;;;;5033202;28;20045;-64
2023/08/06 04:36:53;;;;;;;6.05;2.88;;;21.90;92.60;;;;;;5028392;28;20053;-63
2023/08/06 04:39:19;;;;;;;4.72;3.10;;;21.90;92.50;;;;;;5021731;28;20522;-63
2023/08/06 04:41:44;;;;;;;5.45;3.03;;;21.70;91.30;;;;;;5027304;28;20045;-63
2023/08/06 04:44:10;;;;;;;7.15;3.10;;;21.80;92.60;;;;;;5014159;28;20038;-65
2023/08/06 04:46:36;;;;;;;5.25;3.17;;;21.60;91.40;;;;;;5027959;28;20143;-62
2023/08/06 04:49:01;;;;;;;4.15;2.70;;;21.90;92.50;;;;;;5022842;28;20042;-63
2023/08/06 04:51:27;;;;;;;5.88;3.20;;;21.80;91.40;;;;;;5033594;28;20172;-63
2023/08/06 04:53:53;;;;;;;5.55;3.00;;;21.90;92.70;;;;;;5034861;28;20041;-64
2023/08/06 04:56:19;;;;;;;5.18;2.70;;;21.80;91.40;;;;;;5033447;28;20041;-62
2023/08/06 04:58:45;;;;;;;6.20;2.88;;;21.80;91.50;;;;;;5031662;28;20049;-63
2023/08/06 05:01:10;;;;;;;4.35;2.92;;;21.80;92.60;;;;;;5023862;28;20057;-61
2023/08/06 05:03:36;;;;;;;4.82;2.88;;;22.00;92.50;;;;;;5020163;28;20038;-63
2023/08/06 05:06:02;;;;;;;4.25;2.90;;;21.70;92.70;;;;;;5033706;28;20119;-62
2023/08/06 05:08:28;;;;;;;4.53;3.03;;;21.70;91.30;;;;;;5032903;28;20103;-62
2023/08/06 05:10:53;;;;;;;6.03;3.10;;;21.90;92.60;;;;;;5033448;28;20529;-62
2023/08/06 05:13:20;;;;;;;5.97;2.97;;;;;;;;;;5033682;28;20102;-62
2023/08/06 05:15:46;;;;;;;5.30;3.38;;;22.00;92.50;;;;;;5026794;28;20057;-63
2023/08/06 05:18:12;;;;;;;4.82;2.80;;;21.80;91.40;;;;;;5032918;28;20059;-62
2023/08/06 05:20:41;;;;;;;4.75;3.05;;;21.80;92.70;;;;;;5033992;28;20037;-62
2023/08/06 05:23:07;;;;;;;4.93;2.97;;;22.10;92.50;;;;;;5033060;28;20049;-62
2023/08/06 05:25:36;;;;;;;4.95;3.10;;;21.90;92.50;;;;;;5029694;28;20052;-70
2023/08/06 05:28:02;;;;;;;5.30;3.05;;;22.10;92.50;;;;;;5031281;28;20507;-62
2023/08/06 05:30:28;;;;;;;4.78;2.63;;;21.90;91.40;;;;;;5030883;28;20095;-62
2023/08/06 05:32:55;;;;;;;6.40;3.05;;;22.20;92.60;;;;;;5056613;28;20050;-62
2023/08/06 05:35:21;;;;;;;4.43;2.85;;;22.10;91.50;;;;;;5029221;28;20045;-63
2023/08/06 05:37:47;;;;;;;4.75;2.80;;;22.10;92.50;;;;;;5030630;28;20057;-62
2023/08/06 05:40:14;;;;;;;5.13;3.00;;;22.10;92.50;;;;;;5023999;28;20049;-62
2023/08/06 05:42:40;;;;;;;5.30;2.60;;;22.00;92.50;;;;;;5032890;28;20483;-65
2023/08/06 05:45:07;;;;;;;5.20;3.08;;;22.00;92.50;;;;;;5032447;28;20045;-63
2023/08/06 05:47:33;;;;;;;4.82;2.45;;;22.10;92.60;;;;;;5032513;28;20049;-67
2023/08/06 05:49:58;;;;;;;5.40;2.90;;;22.10;92.50;;;;;;5027974;28;20053;-64
2023/08/06 05:52:24;;;;;;;5.18;3.45;;;22.10;92.80;;;;;;5024428;28;20129;-67
2023/08/06 05:54:50;;;;;;;5.13;3.20;;;22.10;92.50;;;;;;5032366;28;20056;-67
2023/08/06 05:57:16;;;;;;;6.32;3.53;;;22.20;92.50;;;;;;5031941;28;20513;-64
2023/08/06 05:59:42;;;;;;;5.25;3.25;;;22.10;92.50;;;;;;5030226;28;20372;-64
2023/08/06 06:02:08;;;;;;;5.13;3.45;;;22.10;92.50;;;;;;5029952;28;20049;-68
2023/08/06 06:04:34;;;;;;;5.22;3.53;;;22.20;91.40;;;;;;5015601;28;20052;-67
2023/08/06 06:07:00;;;;;;;5.15;3.30;;;22.10;91.40;;;;;;5015735;28;20089;-66
2023/08/06 06:09:26;;;;;;;5.88;3.35;;;22.20;91.20;;;;;;5015788;28;20069;-71
2023/08/06 06:11:52;;;;;;;6.55;2.90;;;22.20;93.00;;;;;;5031655;28;20056;-69
2023/08/06 06:14:18;;;;;;;5.22;3.13;;;22.10;92.60;;;;;;5026974;28;20053;-63
2023/08/06 06:16:44;;;;;;;5.30;3.10;;;22.50;92.50;;;;;;5011709;28;20042;-66
2023/08/06 06:19:11;;;;;;;5.78;3.05;;;22.60;92.40;;;;;;5029881;28;20434;-71
2023/08/06 06:21:37;;;;;;;6.03;3.17;;;22.70;92.30;;;;;;5030700;28;20124;-68
2023/08/06 06:24:08;;;;;;;4.80;2.90;;;22.50;92.10;;;;;;5020807;28;20049;-71
2023/08/06 06:26:34;;;;;;;4.50;2.65;;;22.70;92.00;;;;;;5024729;28;20073;-70
2023/08/06 06:29:00;;;;;;;4.65;2.83;;;23.00;91.00;;;;;;5023196;28;20088;-68
2023/08/06 06:31:25;;;;;;;5.70;2.83;;;22.80;91.90;;;;;;5031419;28;20076;-64
2023/08/06 06:33:54;;;;;;;6.85;3.28;;;22.80;91.80;;;;;;5031297;28;20037;-69
2023/08/06 06:36:20;;;;;;;3.70;2.38;;;22.80;91.90;;;;;;5032801;28;20045;-72
2023/08/06 06:38:45;;;;;;;3.90;2.28;;;22.70;90.80;;;;;;5028921;28;20116;-72
2023/08/06 06:41:11;;;;;;;4.95;2.70;;;22.80;91.80;;;;;;5030285;28;20125;-65
2023/08/06 06:43:39;;;;;;;5.50;2.42;;;22.80;91.80;;;;;;5019069;28;20476;-63
2023/08/06 06:46:05;;;;;;;4.75;2.78;;;22.90;90.70;;;;;;5013168;28;20050;-62
2023/08/06 06:48:32;;;;;;;4.03;2.60;;;22.70;91.70;;;;;;5012521;28;20064;-63
2023/08/06 06:50:58;;;;;;;8.10;2.80;;;22.70;90.70;;;;;;5030821;28;20049;-62
2023/08/06 06:53:28;;;;;;;4.78;3.17;;;23.20;90.70;;;;;;5017223;28;20484;-68
2023/08/06 06:56:04;;;;;;;5.63;2.80;;;22.80;90.20;;;;;;5011464;28;20038;-69
2023/08/06 06:58:31;;;;;;;4.78;2.70;;;22.90;91.80;;;;;;5013217;28;20050;-72
2023/08/06 07:00:58;;;;;;;6.13;2.95;;;22.90;91.70;;;;;;5028137;28;20053;-69
2023/08/06 07:03:24;;;;;;;4.97;2.95;;;22.80;90.60;;;;;;5029779;28;20050;-66
2023/08/06 07:05:50;;;;;;;6.10;2.83;;;22.70;91.80;;;;;;5022023;28;21961;-66
2023/08/06 07:08:16;;;;;;;4.53;2.47;;;22.90;91.70;;;;;;5030395;28;20041;-64
2023/08/06 07:10:42;;;;;;;3.95;2.58;;;22.80;91.60;;;;;;5031713;28;20128;-68
2023/08/06 07:13:08;;;;;;;4.40;2.92;;;23.10;91.90;;;;;;5030966;28;20454;-70
2023/08/06 07:15:34;;;;;;;3.83;2.42;;;23.40;90.60;;;;;;5020679;28;20613;-62
2023/08/06 07:18:00;;;;;;;3.60;2.15;;;23.10;90.40;;;;;;5017559;28;20137;-63
2023/08/06 07:20:32;;;;;;;3.30;2.08;;;23.10;90.40;;;;;;5024586;28;20121;-62
2023/08/06 07:22:59;;;;;;;3.03;1.95;;;23.20;90.50;;;;;;5033099;28;20060;-63
2023/08/06 07:25:24;;;;;;;3.88;2.35;;;23.30;90.30;;;;;;5035647;28;20060;-62
2023/08/06 07:27:50;;;;;;;3.63;2.30;;;23.40;90.30;;;;;;5034578;28;20045;-62
2023/08/06 07:30:16;;;;;;;2.85;2.00;;;23.60;90.20;;;;;;5034315;28;20199;-63
2023/08/06 07:32:42;;;;;;;3.58;2.25;;;23.20;90.10;;;;;;5039739;28;20414;-63
2023/08/06 07:35:12;;;;;;;4.93;2.60;;;23.20;90.10;;;;;;5034908;28;20057;-67
2023/08/06 07:37:38;;;;;;;4.18;2.10;;;23.20;90.10;;;;;;5042675;28;20075;-68
2023/08/06 07:40:05;;;;;;;3.60;2.25;;;23.30;91.10;;;;;;5033565;28;20077;-68
2023/08/06 07:42:31;;;;;;;4.70;2.22;;;23.30;89.90;;;;;;5034556;28;20051;-70
2023/08/06 07:44:58;;;;;;;4.13;2.30;;;23.40;91.30;;;;;;5033383;28;20045;-65
2023/08/06 07:47:24;;;;;;;4.57;2.22;;;23.40;91.10;;;;;;5027869;28;20468;-66
2023/08/06 07:49:50;;;;;;;5.60;2.30;;;23.30;89.60;;;;;;5032944;28;20530;-70
2023/08/06 07:52:16;;;;;;;4.65;2.20;;;23.50;89.90;;;;;;5034589;28;20088;-64
2023/08/06 07:54:42;;;;;;;3.92;2.25;;;23.80;90.00;;;;;;5033414;28;20456;-64
2023/08/06 07:57:08;;;;;;;3.30;2.10;;;23.80;90.00;;;;;;5026916;28;20089;-62
2023/08/06 07:59:34;;;;;;;3.70;2.20;;;23.70;89.70;;;;;;5018198;28;20084;-61
2023/08/06 08:02:00;;;;;;;3.75;2.30;;;23.90;91.00;;;;;;5030965;28;20085;-61
2023/08/06 08:04:27;;;;;;;3.15;2.13;;;23.80;89.30;;;;;;5036084;28;20041;-66
2023/08/06 08:06:53;;;;;;;4.95;2.47;;;23.70;88.00;;;;;;5034909;28;20103;-61
2023/08/06 08:09:19;;;;;;;3.75;2.20;;;23.80;90.60;;;;;;5032708;28;20045;-66
2023/08/06 08:11:46;;;;;;;3.90;2.28;;;24.20;90.80;;;;;;5031649;28;20045;-62
2023/08/06 08:14:12;;;;;;;4.05;2.20;;;24.20;88.90;;;;;;5034317;28;20053;-63
2023/08/06 08:16:38;;;;;;;3.80;2.30;;;24.20;88.50;;;;;;5035248;28;20041;-66
2023/08/06 08:19:04;;;;;;;5.32;2.53;;;24.30;88.40;;;;;;5033132;28;20056;-63
2023/08/06 08:21:29;;;;;;;3.97;2.30;;;24.30;88.20;;;;;;5033258;28;20060;-63
2023/08/06 08:23:55;;;;;;;3.47;2.20;;;24.20;87.70;;;;;;5027721;28;20104;-62
2023/08/06 08:26:21;;;;;;;4.07;2.20;;;24.50;87.50;;;;;;5035595;28;20045;-62
2023/08/06 08:28:47;;;;;;;3.17;2.10;;;24.80;87.80;;;;;;5030154;28;20046;-65
2023/08/06 08:31:13;;;;;;;4.70;2.38;;;24.70;87.50;;;;;;5022002;28;20057;-62
2023/08/06 08:33:39;;;;;;;3.63;2.20;;;25.00;90.10;;;;;;5017760;28;20041;-61
2023/08/06 08:36:05;;;;;;;3.15;2.03;;;24.80;87.10;;;;;;5033347;28;20049;-62
2023/08/06 08:38:31;;;;;;;3.72;2.10;;;24.60;86.70;;;;;;5035077;28;20052;-61
2023/08/06 08:40:57;;;;;;;3.67;2.30;;;25.00;86.90;;;;;;5049311;28;20057;-61
2023/08/06 08:43:23;;;;;;;4.28;2.20;;;25.00;86.50;;;;;;5056890;28;20049;-61
2023/08/06 08:45:55;;;;;;;4.13;2.40;;;24.90;86.80;;;;;;5028480;28;20048;-61
2023/08/06 08:48:21;;;;;;;3.60;2.20;;;25.20;87.20;;;;;;5033629;28;20057;-61
2023/08/06 08:50:48;;;;;;;3.63;2.10;;;25.20;89.40;;;;;;5031695;28;20072;-73
2023/08/06 08:53:14;;;;;;;3.08;1.88;;;25.20;86.90;;;;;;5023546;28;20045;-66
2023/08/06 08:55:47;;;;;;;3.75;2.28;;;25.10;86.20;;;;;;5047764;28;20046;-62
2023/08/06 08:58:21;;;;;;;3.80;2.08;;;25.00;85.10;;;;;;5013852;28;20384;-62
2023/08/06 09:00:48;;;;;;;3.75;2.22;;;24.80;86.00;;;;;;5016703;28;20065;-62
2023/08/06 09:03:14;;;;;;;5.18;2.20;;;25.20;86.40;;;;;;5063311;28;20403;-64
2023/08/06 09:05:43;;;;;;;5.40;2.00;;;25.10;86.10;;;;;;5014392;28;20049;-68
2023/08/06 09:08:10;;;;;;;3.33;2.17;;;25.20;86.20;;;;;;5013791;28;20053;-61
2023/08/06 09:10:37;;;;;;;2.90;1.85;;;25.10;85.50;;;;;;5036800;28;20108;-62
2023/08/06 09:13:03;;;;;;;3.97;2.17;;;25.30;86.10;;;;;;5028044;28;20184;-62
2023/08/06 09:15:29;;;;;;;3.97;2.10;;;25.20;86.10;;;;;;5034039;28;20059;-62
2023/08/06 09:17:55;;;;;;;3.97;2.03;;;25.30;86.10;;;;;;5043301;28;20049;-64
2023/08/06 09:20:21;;;;;;;3.85;2.20;;;25.40;86.00;;;;;;5026306;28;20080;-62
2023/08/06 09:22:48;;;;;;;4.20;2.25;;;25.40;85.70;;;;;;5031561;28;20049;-61
2023/08/06 09:25:25;;;;;;;3.97;2.28;;;25.50;86.20;;;;;;5028969;28;20133;-61
2023/08/06 09:27:51;;;;;;;4.43;2.17;;;25.30;85.10;;;;;;5026997;28;20049;-62
2023/08/06 09:30:31;;;;;;;4.50;2.08;;;25.20;85.40;;;;;;5030772;28;20049;-71
2023/08/06 09:32:57;;;;;;;3.50;2.05;;;25.80;86.30;;;;;;5028159;28;20045;-65
2023/08/06 09:35:23;;;;;;;3.78;2.20;;;25.40;85.90;;;;;;5032946;28;20455;-63
2023/08/06 09:37:50;;;;;;;4.47;2.00;;;25.50;85.70;;;;;;5027152;28;20041;-65
2023/08/06 09:40:31;;;;;;;4.55;2.17;;;25.20;84.60;;;;;;5031903;28;20052;-62
2023/08/06 09:42:57;;;;;;;5.30;2.22;;;25.50;86.10;;;;;;5029210;28;20454;-62
2023/08/06 09:48:49;;;;;;;5.25;2.65;;;25.60;84.80;;;;;;5026014;28;20084;-63
2023/08/06 09:51:15;;;;;;;6.38;2.90;;;25.60;85.80;;;;;;5030561;28;20045;-72
2023/08/06 09:53:41;;;;;;;6.45;2.90;;;25.10;85.50;;;;;;5027940;28;20045;-61
2023/08/06 09:56:07;;;;;;;5.47;2.70;;;25.40;85.50;;;;;;5030598;28;20042;-62
2023/08/06 09:58:33;;;;;;;5.53;2.95;;;25.50;85.50;;;;;;5024358;28;20069;-62
2023/08/06 10:01:00;;;;;;;7.25;3.03;;;25.20;85.90;;;;;;5030758;28;20056;-69
2023/08/06 10:03:26;;;;;;;6.88;2.55;;;25.40;85.90;;;;;;5025250;28;20518;-65
2023/08/06 10:05:52;;;;;;;7.20;2.95;;;25.40;85.50;;;;;;5027814;28;20045;-70
2023/08/06 10:08:17;;;;;;;5.45;3.08;;;25.20;85.50;;;;;;5032221;28;20060;-67
2023/08/06 10:10:44;;;;;;;6.13;3.05;;;25.40;85.60;;;;;;5033445;28;20049;-71
2023/08/06 10:13:10;;;;;;;5.30;3.00;;;25.40;85.90;;;;;;5028247;28;20112;-70
2023/08/06 10:15:38;;;;;;;5.32;2.83;;;25.10;85.40;;;;;;5029422;28;20949;-62
2023/08/06 10:18:03;;;;;;;6.15;3.22;;;25.20;85.60;;;;;;5030711;28;20046;-67
2023/08/06 10:20:34;;;;;;;6.10;3.20;;;25.40;85.70;;;;;;5040778;28;20127;-71
2023/08/06 10:23:01;;;;;;;6.38;2.97;;;25.50;86.00;;;;;;5026300;28;20111;-67
2023/08/06 10:25:29;;;;;;;7.07;3.33;;;25.20;85.80;;;;;;5028063;28;20081;-66
2023/08/06 10:27:56;;;;;;;7.85;3.20;;;25.00;85.70;;;;;;5046256;28;20049;-65
2023/08/06 10:30:31;;;;;;;5.60;3.22;;;25.20;85.70;;;;;;5032812;28;20045;-68
2023/08/06 10:33:04;;;;;;;7.45;3.50;;;25.30;86.20;;;;;;5027461;28;20057;-66
2023/08/06 10:35:49;;;;;;;;;;;25.20;84.50;;;;;;5024538;28;20041;-68
2023/08/06 10:38:18;;;;;;;5.25;2.90;;;25.10;84.70;;;;;;5027323;28;19921;-70
2023/08/06 10:41:00;;;;;;;6.15;2.97;;;25.10;84.60;;;;;;5031475;28;20067;-72
2023/08/06 10:43:33;;;;;;;6.57;3.27;;;25.10;84.70;;;;;;5025496;28;20438;-62
2023/08/06 10:46:02;;;;;;;7.00;3.15;;;25.40;84.90;;;;;;4999953;28;20854;-69
2023/08/06 10:48:41;;;;;;;7.30;3.03;;;24.90;86.00;;;;;;5029866;28;20125;-65
2023/08/06 10:51:11;;;;;;;7.55;3.35;;;25.20;84.90;;;;;;5027808;28;20053;-72
2023/08/06 10:53:37;;;;;;;7.15;3.10;;;25.10;88.70;;;;;;5013008;28;20057;-68
2023/08/06 10:56:16;;;;;;;7.95;3.42;;;24.90;86.10;;;;;;5025362;28;20064;-71
2023/08/06 10:58:42;;;;;;;7.47;3.47;;;25.30;85.10;;;;;;5027363;28;20053;-68
2023/08/06 11:01:08;;;;;;;6.90;2.80;;;25.00;86.20;;;;;;5013438;28;20062;-66
2023/08/06 11:03:34;;;;;;;6.65;2.60;;;25.10;86.00;;;;;;5046817;28;20129;-72
2023/08/06 11:06:00;;;;;;;6.22;3.13;;;24.70;86.30;;;;;;5030191;28;20124;-74
2023/08/06 11:08:27;;;;;;;7.38;3.20;;;24.90;85.90;;;;;;5016341;28;20041;-67
2023/08/06 11:10:53;;;;;;;5.93;2.65;;;24.80;86.10;;;;;;5031335;28;20045;-64
2023/08/06 11:13:20;;;;;;;5.35;2.95;;;25.10;86.10;;;;;;5023544;28;20068;-77
2023/08/06 11:15:46;;;;;;;7.43;3.20;;;25.00;86.10;;;;;;5031754;28;20075;-64
2023/08/06 11:18:12;;;;;;;5.82;2.78;;;24.90;85.80;;;;;;5026789;28;20079;-61
2023/08/06 11:20:38;;;;;;;5.25;2.88;;;25.10;89.00;;;;;;5030372;28;20072;-68
2023/08/06 11:23:04;;;;;;;6.53;3.10;;;25.10;86.10;;;;;;5028625;28;20558;-72
2023/08/06 11:25:30;;;;;;;6.75;2.88;;;24.90;85.80;;;;;;5032400;28;20112;-76
2023/08/06 11:27:56;;;;;;;6.38;3.10;;;25.20;85.90;;;;;;5028342;28;20610;-69
2023/08/06 11:30:22;;;;;;;5.95;2.67;;;25.10;85.80;;;;;;5024737;28;20060;-62
2023/08/06 11:32:48;;;;;;;7.05;2.42;;;25.20;86.60;;;;;;5031350;28;20057;-71
2023/08/06 11:35:15;;;;;;;6.00;2.60;;;25.00;85.70;;;;;;5030936;28;20034;-65
2023/08/06 11:37:44;;;;;;;6.40;2.97;;;25.00;85.50;;;;;;5029620;28;20048;-67
2023/08/06 11:40:11;;;;;;;5.38;2.70;;;25.00;86.00;;;;;;5024000;28;20396;-73
2023/08/06 11:42:37;;;;;;;4.60;2.55;;;25.10;85.50;;;;;;5029445;28;20526;-74
2023/08/06 11:45:04;;;;;;;5.95;2.58;;;25.10;85.70;;;;;;5031911;28;20093;-62
2023/08/06 11:47:30;;;;;;;6.05;2.75;;;25.10;85.40;;;;;;5028015;28;20168;-66
2023/08/06 11:49:55;;;;;;;5.13;2.60;;;25.10;85.70;;;;;;5063977;28;20472;-64
2023/08/06 11:52:23;;;;;;;6.38;2.67;;;25.20;85.60;;;;;;5027363;28;20051;-71
2023/08/06 11:55:10;;;;;;;4.88;2.40;;;25.10;85.80;;;;;;5029885;28;20038;-64
2023/08/06 11:57:36;;;;;;;4.55;2.40;;;25.20;85.70;;;;;;5029269;28;20434;-68
2023/08/06 12:00:10;;;;;;;4.57;2.40;;;25.10;85.70;;;;;;5029114;28;20088;-67
2023/08/06 12:02:39;;;;;;;4.63;2.50;;;25.00;84.30;;;;;;5027538;28;20060;-62
2023/08/06 12:05:12;;;;;;;4.78;2.42;;;25.20;85.60;;;;;;5011779;28;20484;-68
2023/08/06 12:07:39;;;;;;;4.70;2.40;;;25.00;84.10;;;;;;5027337;28;20064;-73
2023/08/06 12:10:05;;;;;;;4.22;2.30;;;25.10;85.70;;;;;;5035470;28;20544;-63
2023/08/06 12:12:35;;;;;;;4.65;2.45;;;25.30;85.30;;;;;;5032097;28;20394;-71
2023/08/06 12:15:01;;;;;;;4.63;2.28;;;25.30;85.70;;;;;;5067389;28;20048;-63
2023/08/06 12:17:27;;;;;;;6.65;2.40;;;25.30;85.60;;;;;;5049375;28;20064;-64
2023/08/06 12:19:53;;;;;;;4.90;2.08;;;25.30;85.50;;;;;;5031613;28;20037;-78
2023/08/06 12:22:18;;;;;;;4.10;2.47;;;25.10;85.40;;;;;;5043129;28;20045;-75
2023/08/06 12:24:45;;;;;;;4.70;2.40;;;25.20;85.50;;;;;;5032516;28;20033;-77
2023/08/06 12:27:10;;;;;;;5.72;2.30;;;25.00;85.50;;;;;;5035128;28;20560;-71
2023/08/06 12:29:40;;;;;;;4.60;2.10;;;25.00;85.40;;;;;;5034131;28;20037;-76
2023/08/06 12:32:06;;;;;;;3.95;2.10;;;25.40;86.00;;;;;;5030332;28;20053;-75
2023/08/06 12:34:32;;;;;;;3.40;2.00;;;25.10;85.60;;;;;;5035357;28;20115;-77
2023/08/06 12:36:57;;;;;;;4.32;2.25;;;25.00;88.70;;;;;;5028234;28;21436;-60
2023/08/06 12:39:23;;;;;;;4.38;2.20;;;24.70;85.40;;;;;;5029787;28;20381;-73
2023/08/06 12:41:49;;;;;;;5.03;2.17;;;24.90;85.30;;;;;;5029965;28;20045;-76
2023/08/06 12:44:15;;;;;;;4.15;2.10;;;24.90;85.50;;;;;;5033007;28;20037;-77
2023/08/06 12:46:41;;;;;;;3.95;2.17;;;25.10;85.40;;;;;;5033775;28;20506;-69
2023/08/06 12:49:06;;;;;;;3.05;1.77;;;24.80;85.10;;;;;;5028956;28;20064;-65